createdAt,value
2022-07-27T00:01:11.081Z,23.21
2022-07-27T00:03:39.254Z,23.20
2022-07-27T00:06:07.925Z,23.05
2022-07-27T00:08:35.858Z,22.79
2022-07-27T00:11:03.889Z,23.07
2022-07-27T00:13:32.699Z,22.45
2022-07-27T00:16:00.738Z,22.89
2022-07-27T00:18:30.227Z,22.44
2022-07-27T00:20:58.109Z,22.67
2022-07-27T00:23:26.008Z,22.61
2022-07-27T00:25:53.916Z,22.56
2022-07-27T00:28:21.794Z,22.56
2022-07-27T00:30:49.752Z,22.57
2022-07-27T00:33:17.745Z,22.52
2022-07-27T00:35:47.203Z,22.61
2022-07-27T00:38:16.539Z,22.69
2022-07-27T00:40:45.221Z,22.67
2022-07-27T00:43:13.599Z,22.47
2022-07-27T00:45:41.762Z,22.87
2022-07-27T00:48:09.837Z,22.93
2022-07-27T00:50:38.754Z,22.92
2022-07-27T00:53:09.429Z,22.98
2022-07-27T00:55:38.010Z,22.98
2022-07-27T00:58:08.728Z,22.97
2022-07-27T01:00:38.503Z,22.98
2022-07-27T01:03:09.023Z,23.08
2022-07-27T01:05:43.077Z,23.05
2022-07-27T01:08:14.302Z,22.92
2022-07-27T01:10:43.729Z,22.95
2022-07-27T01:13:13.416Z,23.04
2022-07-27T01:15:43.084Z,23.01
2022-07-27T01:18:27.733Z,22.93
2022-07-27T01:20:55.858Z,22.81
2022-07-27T01:23:25.648Z,22.78
2022-07-27T01:25:54.054Z,22.81
2022-07-27T01:28:22.429Z,22.85
2022-07-27T01:30:50.414Z,22.82
2022-07-27T01:33:18.382Z,22.70
2022-07-27T01:35:46.335Z,22.75
2022-07-27T01:38:14.258Z,22.60
2022-07-27T01:40:43.534Z,22.47
2022-07-27T01:43:11.425Z,22.16
2022-07-27T01:45:40.993Z,22.41
2022-07-27T01:48:08.929Z,22.46
2022-07-27T01:50:36.983Z,22.34
2022-07-27T01:53:04.952Z,22.56
2022-07-27T01:55:39.129Z,22.15
2022-07-27T01:58:09.311Z,22.34
2022-07-27T02:00:37.561Z,22.36
2022-07-27T02:03:06.729Z,22.14
2022-07-27T02:05:34.802Z,21.95
2022-07-27T02:08:02.765Z,21.95
2022-07-27T02:10:30.709Z,21.76
2022-07-27T02:12:57.818Z,21.60
2022-07-27T02:15:33.872Z,21.29
2022-07-27T02:18:32.880Z,21.28
2022-07-27T02:21:00.233Z,21.47
2022-07-27T02:23:28.137Z,21.41
2022-07-27T02:25:55.997Z,21.35
2022-07-27T02:28:23.992Z,21.35
2022-07-27T02:30:53.261Z,21.41
2022-07-27T02:33:21.239Z,21.25
2022-07-27T02:35:49.216Z,21.25
2022-07-27T02:38:17.070Z,21.14
2022-07-27T02:40:45.284Z,21.05
2022-07-27T02:43:14.090Z,20.94
2022-07-27T02:45:42.010Z,20.87
2022-07-27T02:48:11.285Z,20.82
2022-07-27T02:50:39.205Z,20.74
2022-07-27T02:53:07.093Z,20.72
2022-07-27T02:55:34.996Z,20.78
2022-07-27T02:58:02.880Z,20.83
2022-07-27T03:00:31.016Z,20.81
2022-07-27T03:02:59.023Z,20.83
2022-07-27T03:05:28.282Z,20.75
2022-07-27T03:07:56.168Z,20.60
2022-07-27T03:10:24.032Z,20.45
2022-07-27T03:12:51.997Z,20.45
2022-07-27T03:15:19.900Z,20.56
2022-07-27T03:17:47.773Z,20.52
2022-07-27T03:20:16.073Z,20.65
2022-07-27T03:22:45.318Z,20.68
2022-07-27T03:25:13.670Z,20.47
2022-07-27T03:27:41.577Z,20.51
2022-07-27T03:30:10.297Z,20.29
2022-07-27T03:32:38.203Z,20.28
2022-07-27T03:35:07.102Z,20.24
2022-07-27T03:37:35.677Z,20.23
2022-07-27T03:40:05.331Z,20.34
2022-07-27T03:42:33.241Z,20.36
2022-07-27T03:45:01.126Z,20.48
2022-07-27T03:47:29.028Z,20.44
2022-07-27T03:49:56.911Z,20.43
2022-07-27T03:52:24.819Z,21.00
2022-07-27T03:54:52.740Z,21.04
2022-07-27T03:57:21.996Z,21.00
2022-07-27T03:59:50.086Z,20.92
2022-07-27T04:02:18.029Z,20.91
2022-07-27T04:04:45.940Z,20.88
2022-07-27T04:07:13.880Z,21.13
2022-07-27T04:09:41.825Z,21.18
2022-07-27T04:14:40.981Z,21.26
2022-07-27T04:17:08.943Z,21.37
2022-07-27T04:19:36.859Z,20.35
2022-07-27T04:22:04.836Z,21.49
2022-07-27T04:24:32.704Z,21.60
2022-07-27T04:27:00.594Z,21.73
2022-07-27T04:29:28.773Z,21.86
2022-07-27T04:31:58.070Z,22.04
2022-07-27T04:34:26.037Z,22.15
2022-07-27T04:36:53.943Z,22.44
2022-07-27T04:39:21.912Z,22.75
2022-07-27T04:41:49.870Z,22.78
2022-07-27T04:44:17.725Z,22.76
2022-07-27T04:46:45.672Z,22.73
2022-07-27T04:49:15.278Z,22.77
2022-07-27T04:51:45.040Z,23.03
2022-07-27T04:54:13.532Z,23.11
2022-07-27T04:56:42.654Z,23.30
2022-07-27T04:59:11.715Z,23.70
2022-07-27T05:01:39.900Z,24.14
2022-07-27T05:04:07.865Z,24.40
2022-07-27T05:06:37.277Z,23.85
2022-07-27T05:09:05.213Z,24.30
2022-07-27T05:11:33.080Z,24.64
2022-07-27T05:14:00.984Z,24.50
2022-07-27T05:16:29.338Z,25.19
2022-07-27T05:18:57.677Z,25.78
2022-07-27T05:21:25.768Z,25.80
2022-07-27T05:23:55.026Z,26.27
2022-07-27T05:26:23.341Z,26.47
2022-07-27T05:28:51.335Z,26.72
2022-07-27T05:31:19.868Z,27.70
2022-07-27T05:33:49.824Z,27.94
2022-07-27T05:36:19.368Z,28.30
2022-07-27T05:38:47.278Z,28.88
2022-07-27T05:41:16.660Z,28.68
2022-07-27T05:43:44.682Z,29.14
2022-07-27T05:46:12.692Z,29.25
2022-07-27T05:48:40.699Z,29.62
2022-07-27T05:51:09.510Z,29.22
2022-07-27T05:53:37.488Z,29.48
2022-07-27T05:56:07.913Z,29.96
2022-07-27T05:58:37.426Z,29.97
2022-07-27T06:01:05.480Z,29.52
2022-07-27T06:03:34.006Z,30.32
2022-07-27T06:06:19.402Z,30.79
2022-07-27T06:08:47.333Z,30.70
2022-07-27T06:11:15.521Z,31.09
2022-07-27T06:13:44.960Z,30.76
2022-07-27T06:16:13.013Z,30.72
2022-07-27T06:18:41.019Z,30.75
2022-07-27T06:21:09.226Z,30.55
2022-07-27T06:23:37.317Z,30.21
2022-07-27T06:26:05.340Z,30.66
2022-07-27T06:28:33.497Z,30.82
2022-07-27T06:31:02.856Z,30.41
2022-07-27T06:33:31.764Z,30.97
2022-07-27T06:36:02.089Z,30.47
2022-07-27T06:38:30.499Z,30.74
2022-07-27T06:40:58.494Z,30.28
2022-07-27T06:43:28.036Z,30.52
2022-07-27T06:45:56.176Z,30.77
2022-07-27T06:48:26.352Z,31.52
2022-07-27T06:50:54.428Z,31.63
2022-07-27T06:53:22.799Z,31.45
2022-07-27T06:55:51.033Z,31.36
2022-07-27T06:58:19.808Z,31.25
2022-07-27T07:00:48.209Z,31.59
2022-07-27T07:03:16.328Z,31.99
2022-07-27T07:05:47.261Z,32.24
2022-07-27T07:08:15.707Z,31.86
2022-07-27T07:10:46.383Z,31.85
2022-07-27T07:13:14.586Z,32.54
2022-07-27T07:15:44.245Z,32.55
2022-07-27T07:18:13.529Z,32.55
2022-07-27T07:20:42.385Z,31.96
2022-07-27T07:23:12.455Z,31.87
2022-07-27T07:25:40.908Z,32.78
2022-07-27T07:28:09.769Z,33.04
2022-07-27T07:30:37.873Z,33.38
2022-07-27T07:33:06.134Z,33.28
2022-07-27T07:35:34.192Z,33.53
2022-07-27T07:38:02.125Z,33.04
2022-07-27T07:40:46.757Z,33.37
2022-07-27T07:43:15.279Z,33.34
2022-07-27T07:45:51.500Z,33.37
2022-07-27T07:48:21.484Z,33.43
2022-07-27T07:50:52.404Z,32.91
2022-07-27T07:53:22.431Z,32.99
2022-07-27T07:55:52.209Z,33.64
2022-07-27T07:58:20.512Z,33.89
2022-07-27T08:00:48.962Z,34.70
2022-07-27T08:03:17.104Z,35.18
2022-07-27T08:05:45.187Z,35.79
2022-07-27T08:08:13.392Z,35.55
2022-07-27T08:10:41.293Z,35.52
2022-07-27T08:13:10.934Z,34.84
2022-07-27T08:15:38.888Z,35.13
2022-07-27T08:18:07.279Z,34.77
2022-07-27T08:20:35.469Z,33.94
2022-07-27T08:23:03.776Z,33.85
2022-07-27T08:25:32.125Z,34.55
2022-07-27T08:28:00.219Z,35.15
2022-07-27T08:30:33.738Z,34.88
2022-07-27T08:33:03.772Z,34.66
2022-07-27T08:35:32.859Z,35.01
2022-07-27T08:38:01.916Z,34.88
2022-07-27T08:40:46.825Z,34.96
2022-07-27T08:43:23.772Z,36.09
2022-07-27T08:45:59.050Z,35.37
2022-07-27T08:48:27.892Z,34.78
2022-07-27T08:50:56.312Z,34.99
2022-07-27T08:53:24.701Z,35.62
2022-07-27T08:55:52.830Z,36.21
2022-07-27T08:58:21.013Z,35.90
2022-07-27T09:00:50.348Z,35.21
2022-07-27T09:03:22.204Z,35.68
2022-07-27T09:05:53.088Z,36.35
2022-07-27T09:08:24.465Z,35.98
2022-07-27T09:10:54.690Z,36.66
2022-07-27T09:13:25.049Z,35.95
2022-07-27T09:16:17.024Z,36.20
2022-07-27T09:18:44.222Z,35.91
2022-07-27T09:21:15.244Z,36.67
2022-07-27T09:23:44.565Z,37.03
2022-07-27T09:26:31.299Z,37.01
2022-07-27T09:29:02.740Z,36.03
2022-07-27T09:31:32.360Z,36.62
2022-07-27T09:34:03.602Z,36.74
2022-07-27T09:36:32.250Z,36.54
2022-07-27T09:39:12.893Z,37.04
2022-07-27T09:41:43.540Z,36.64
2022-07-27T09:44:31.309Z,37.04
2022-07-27T09:47:00.664Z,37.00
2022-07-27T09:49:32.248Z,37.32
2022-07-27T09:52:02.704Z,36.81
2022-07-27T09:54:44.436Z,37.13
2022-07-27T09:57:12.491Z,36.62
2022-07-27T09:59:40.565Z,36.28
2022-07-27T10:02:09.245Z,37.16
2022-07-27T10:04:39.020Z,37.72
2022-07-27T10:07:12.858Z,37.36
2022-07-27T10:09:42.001Z,37.15
2022-07-27T10:12:10.700Z,37.36
2022-07-27T10:14:38.655Z,36.97
2022-07-27T10:17:10.695Z,36.94
2022-07-27T10:19:46.825Z,37.67
2022-07-27T10:22:15.240Z,37.36
2022-07-27T10:24:43.677Z,36.98
2022-07-27T10:27:22.641Z,37.00
2022-07-27T10:29:51.833Z,37.22
2022-07-27T10:32:26.756Z,37.53
2022-07-27T10:34:56.162Z,38.14
2022-07-27T10:37:26.324Z,37.97
2022-07-27T10:40:16.075Z,39.02
2022-07-27T10:42:47.821Z,38.80
2022-07-27T10:45:20.423Z,39.77
2022-07-27T10:47:50.526Z,38.89
2022-07-27T10:50:30.131Z,38.82
2022-07-27T10:53:01.278Z,38.23
2022-07-27T10:55:48.470Z,38.57
2022-07-27T10:58:52.772Z,38.66
2022-07-27T11:01:22.773Z,38.67
2022-07-27T11:03:56.464Z,38.90
2022-07-27T11:06:34.719Z,39.29
2022-07-27T11:11:59.097Z,38.90
2022-07-27T11:14:31.671Z,38.18
2022-07-27T11:17:24.264Z,39.14
2022-07-27T11:19:55.986Z,39.45
2022-07-27T11:23:14.091Z,39.66
2022-07-27T11:25:20.732Z,38.60
2022-07-27T11:27:49.573Z,37.52
2022-07-27T11:30:27.948Z,37.56
2022-07-27T11:32:57.171Z,37.33
2022-07-27T11:35:25.822Z,37.77
2022-07-27T11:38:01.846Z,37.19
2022-07-27T11:43:36.913Z,38.73
2022-07-27T11:46:16.044Z,39.46
2022-07-27T11:49:09.025Z,40.20
2022-07-27T11:51:40.451Z,40.46
2022-07-27T11:54:11.947Z,40.39
2022-07-27T11:56:43.392Z,39.78
2022-07-27T11:59:17.263Z,39.07
2022-07-27T12:01:48.061Z,38.86
2022-07-27T12:04:20.068Z,38.87
2022-07-27T12:06:55.297Z,39.33
2022-07-27T12:09:25.173Z,38.40
2022-07-27T12:11:59.368Z,37.88
2022-07-27T12:14:37.068Z,37.32
2022-07-27T12:17:29.161Z,37.96
2022-07-27T12:20:00.434Z,37.37
2022-07-27T12:22:32.179Z,36.54
2022-07-27T12:25:05.717Z,36.68
2022-07-27T12:27:38.320Z,37.09
2022-07-27T12:30:11.339Z,36.63
2022-07-27T12:32:42.143Z,36.43
2022-07-27T12:35:25.184Z,36.63
2022-07-27T12:38:00.868Z,37.27
2022-07-27T12:40:31.301Z,36.66
2022-07-27T12:43:01.317Z,36.75
2022-07-27T12:45:34.668Z,37.23
2022-07-27T12:48:11.105Z,37.39
2022-07-27T12:50:41.537Z,36.79
2022-07-27T12:53:10.779Z,36.55
2022-07-27T12:55:40.305Z,36.90
2022-07-27T12:58:10.707Z,37.15
2022-07-27T13:00:39.553Z,37.48
2022-07-27T13:03:08.911Z,37.18
2022-07-27T13:05:37.259Z,36.71
2022-07-27T13:08:05.648Z,36.76
2022-07-27T13:10:34.019Z,36.41
2022-07-27T13:13:03.527Z,36.12
2022-07-27T13:15:31.508Z,36.26
2022-07-27T13:17:59.570Z,36.43
2022-07-27T13:20:28.462Z,36.50
2022-07-27T13:22:56.585Z,36.61
2022-07-27T13:25:24.971Z,36.07
2022-07-27T13:27:52.934Z,35.78
2022-07-27T13:30:23.044Z,35.84
2022-07-27T13:32:50.986Z,35.90
2022-07-27T13:35:18.925Z,35.83
2022-07-27T13:37:46.958Z,36.28
2022-07-27T13:40:15.856Z,37.26
2022-07-27T13:42:43.768Z,37.78
2022-07-27T13:45:12.497Z,38.25
2022-07-27T13:47:42.522Z,38.13
2022-07-27T13:50:18.349Z,37.92
2022-07-27T13:52:48.515Z,36.47
2022-07-27T13:55:17.621Z,35.72
2022-07-27T13:57:46.623Z,35.07
2022-07-27T14:00:16.103Z,34.79
2022-07-27T14:02:46.154Z,34.50
2022-07-27T14:05:14.825Z,34.38
2022-07-27T14:07:44.295Z,34.39
2022-07-27T14:10:31.034Z,34.30
2022-07-27T14:13:07.394Z,34.66
2022-07-27T14:15:53.209Z,34.87
2022-07-27T14:18:25.964Z,34.87
2022-07-27T14:20:54.511Z,34.76
2022-07-27T14:23:22.763Z,34.47
2022-07-27T14:25:50.794Z,34.88
2022-07-27T14:28:19.546Z,34.58
2022-07-27T14:30:49.569Z,34.64
2022-07-27T14:33:17.885Z,34.55
2022-07-27T14:35:48.652Z,34.55
2022-07-27T14:38:27.873Z,33.67
2022-07-27T14:40:59.594Z,34.30
2022-07-27T14:43:28.592Z,33.74
2022-07-27T14:45:56.522Z,33.16
2022-07-27T14:48:37.109Z,32.41
2022-07-27T14:51:13.801Z,32.47
2022-07-27T14:53:41.770Z,32.52
2022-07-27T14:56:09.702Z,32.54
2022-07-27T14:58:37.606Z,32.56
2022-07-27T15:01:05.653Z,32.54
2022-07-27T15:03:33.624Z,32.52
2022-07-27T15:06:01.541Z,32.45
2022-07-27T15:08:30.864Z,32.36
2022-07-27T15:10:58.814Z,32.34
2022-07-27T15:13:26.833Z,32.38
2022-07-27T15:15:56.216Z,32.28
2022-07-27T15:18:24.230Z,32.23
2022-07-27T15:20:52.236Z,32.29
2022-07-27T15:23:20.201Z,32.19
2022-07-27T15:25:49.780Z,32.29
2022-07-27T15:28:17.771Z,32.35
2022-07-27T15:30:45.678Z,32.28
2022-07-27T15:33:13.623Z,32.25
2022-07-27T15:35:41.527Z,32.16
2022-07-27T15:38:09.471Z,32.03
2022-07-27T15:40:41.714Z,32.15
2022-07-27T15:43:13.160Z,32.04
2022-07-27T15:45:42.158Z,32.06
2022-07-27T15:48:12.459Z,31.91
2022-07-27T15:50:42.474Z,31.67
2022-07-27T15:53:10.966Z,31.25
2022-07-27T15:55:39.321Z,31.16
2022-07-27T15:58:07.807Z,31.01
2022-07-27T16:00:41.126Z,30.61
2022-07-27T16:03:10.182Z,30.36
2022-07-27T16:05:38.614Z,30.64
2022-07-27T16:08:09.102Z,30.64
2022-07-27T16:10:37.570Z,30.63
2022-07-27T16:13:06.089Z,30.69
2022-07-27T16:15:52.010Z,30.53
2022-07-27T16:18:21.390Z,30.38
2022-07-27T16:20:49.410Z,30.14
2022-07-27T16:23:18.719Z,29.97
2022-07-27T16:26:08.105Z,29.82
2022-07-27T16:28:38.805Z,29.69
2022-07-27T16:31:08.944Z,29.55
2022-07-27T16:33:38.738Z,29.34
2022-07-27T16:36:08.645Z,29.76
2022-07-27T16:38:37.038Z,29.87
2022-07-27T16:41:07.345Z,29.95
2022-07-27T16:43:38.180Z,29.90
2022-07-27T16:46:07.945Z,29.96
2022-07-27T16:48:42.343Z,29.82
2022-07-27T16:51:12.848Z,29.84
2022-07-27T16:53:42.553Z,29.85
2022-07-27T16:56:11.413Z,29.81
2022-07-27T16:58:40.032Z,29.39
2022-07-27T17:01:08.775Z,29.75
2022-07-27T17:03:37.610Z,29.64
2022-07-27T17:06:07.512Z,29.81
2022-07-27T17:08:36.454Z,29.79
2022-07-27T17:11:05.387Z,29.62
2022-07-27T17:13:35.040Z,29.61
2022-07-27T17:16:03.947Z,29.08
2022-07-27T17:18:37.155Z,29.68
2022-07-27T17:21:09.584Z,29.44
2022-07-27T17:23:39.854Z,29.48
2022-07-27T17:26:08.889Z,29.21
2022-07-27T17:28:39.382Z,29.24
2022-07-27T17:31:09.718Z,29.33
2022-07-27T17:33:38.331Z,29.17
2022-07-27T17:36:14.243Z,29.27
2022-07-27T17:38:42.932Z,29.25
2022-07-27T17:41:10.851Z,29.18
2022-07-27T17:43:39.528Z,29.13
2022-07-27T17:46:07.922Z,28.88
2022-07-27T17:48:35.967Z,28.31
2022-07-27T17:51:04.444Z,28.67
2022-07-27T17:53:34.422Z,28.89
2022-07-27T17:56:02.898Z,28.81
2022-07-27T17:58:30.921Z,28.71
2022-07-27T18:00:59.380Z,28.49
2022-07-27T18:03:27.584Z,28.54
2022-07-27T18:05:55.685Z,28.46
2022-07-27T18:08:24.572Z,27.97
2022-07-27T18:10:54.049Z,28.10
2022-07-27T18:13:21.993Z,28.03
2022-07-27T18:15:50.595Z,27.93
2022-07-27T18:18:20.536Z,27.78
2022-07-27T18:20:50.241Z,27.64
2022-07-27T18:23:18.285Z,27.30
2022-07-27T18:25:47.039Z,27.68
2022-07-27T18:28:19.369Z,27.67
2022-07-27T18:30:49.351Z,27.31
2022-07-27T18:33:17.878Z,27.30
2022-07-27T18:35:47.113Z,27.21
2022-07-27T18:38:16.804Z,27.20
2022-07-27T18:40:47.189Z,27.19
2022-07-27T18:43:17.968Z,27.28
2022-07-27T18:45:46.027Z,27.29
2022-07-27T18:48:14.077Z,27.28
2022-07-27T18:50:42.145Z,27.31
2022-07-27T18:53:10.398Z,26.98
2022-07-27T18:55:38.833Z,26.98
2022-07-27T18:58:07.079Z,27.17
2022-07-27T19:00:36.513Z,27.26
2022-07-27T19:03:04.932Z,27.16
2022-07-27T19:05:41.576Z,27.18
2022-07-27T19:08:12.881Z,27.07
2022-07-27T19:10:42.181Z,26.90
2022-07-27T19:13:10.625Z,26.95
2022-07-27T19:15:40.447Z,27.01
2022-07-27T19:18:09.145Z,26.96
2022-07-27T19:20:37.747Z,25.97
2022-07-27T19:23:05.895Z,26.90
2022-07-27T19:25:34.694Z,26.77
2022-07-27T19:28:02.850Z,26.76
2022-07-27T19:30:31.030Z,26.58
2022-07-27T19:33:00.425Z,26.58
2022-07-27T19:35:28.640Z,26.52
2022-07-27T19:37:56.668Z,26.37
2022-07-27T19:43:12.520Z,26.23
2022-07-27T19:45:41.514Z,26.20
2022-07-27T19:48:12.234Z,26.18
2022-07-27T19:50:40.842Z,26.14
2022-07-27T19:53:09.200Z,26.09
2022-07-27T19:55:37.221Z,26.11
2022-07-27T19:58:05.427Z,26.08
2022-07-27T20:00:34.401Z,25.88
2022-07-27T20:03:03.267Z,25.98
2022-07-27T20:05:32.945Z,26.06
2022-07-27T20:08:00.959Z,26.05
2022-07-27T20:10:28.905Z,25.98
2022-07-27T20:12:56.815Z,25.84
2022-07-27T20:15:26.206Z,25.68
2022-07-27T20:17:54.125Z,25.37
2022-07-27T20:20:22.005Z,25.69
2022-07-27T20:22:51.534Z,25.63
2022-07-27T20:25:20.228Z,25.37
2022-07-27T20:27:48.482Z,25.42
2022-07-27T20:30:18.120Z,25.39
2022-07-27T20:32:46.903Z,25.21
2022-07-27T21:17:09.741Z,24.49
2022-07-27T21:19:39.017Z,23.51
2022-07-27T21:22:06.966Z,24.55
2022-07-27T21:24:34.948Z,24.46
2022-07-27T21:27:05.076Z,24.43
2022-07-27T21:29:33.204Z,24.29
2022-07-27T21:32:01.165Z,24.62
2022-07-27T21:34:29.085Z,24.78
2022-07-27T21:36:58.398Z,24.68
2022-07-27T21:39:28.853Z,24.54
2022-07-27T21:42:01.710Z,24.42
2022-07-27T21:44:30.128Z,23.53
2022-07-27T21:46:58.209Z,24.38
2022-07-27T21:49:34.150Z,24.43
2022-07-27T21:52:04.187Z,24.39
2022-07-27T21:54:32.117Z,24.39
2022-07-27T21:57:00.035Z,24.48
2022-07-27T21:59:28.043Z,24.45
2022-07-27T22:01:55.971Z,24.41
2022-07-27T22:04:23.985Z,24.31
2022-07-27T22:06:51.957Z,24.31
2022-07-27T22:09:21.246Z,24.23
2022-07-27T22:11:49.154Z,24.18
2022-07-27T22:14:17.930Z,23.99
2022-07-27T22:16:46.158Z,24.18
2022-07-27T22:19:14.184Z,24.36
2022-07-27T22:21:42.086Z,24.35
2022-07-27T22:24:10.339Z,24.33
2022-07-27T22:26:40.035Z,24.32
2022-07-27T22:29:07.973Z,24.33
2022-07-27T22:31:35.986Z,24.29
2022-07-27T22:34:03.997Z,24.19
2022-07-27T22:36:32.531Z,24.31
2022-07-27T22:39:00.451Z,24.26
2022-07-27T22:41:28.504Z,24.29
2022-07-27T22:43:57.803Z,24.43
2022-07-27T22:46:26.079Z,24.48
2022-07-27T22:48:54.085Z,24.58
2022-07-27T22:51:22.072Z,24.56
2022-07-27T22:53:49.952Z,24.60
2022-07-27T22:56:18.261Z,24.59
2022-07-27T22:58:46.169Z,24.57
2022-07-27T23:01:41.627Z,24.62
2022-07-27T23:04:03.483Z,24.65
2022-07-27T23:06:31.397Z,24.47
2022-07-27T23:08:59.313Z,24.42
2022-07-27T23:11:27.221Z,24.38
2022-07-27T23:13:55.172Z,24.54
2022-07-27T23:16:24.553Z,24.55
2022-07-27T23:18:52.665Z,24.57
2022-07-27T23:21:20.698Z,23.67
2022-07-27T23:23:51.055Z,24.57
2022-07-27T23:26:23.147Z,24.65
2022-07-27T23:28:54.017Z,24.66
2022-07-27T23:31:22.036Z,24.60
2022-07-27T23:33:51.508Z,24.60
2022-07-27T23:36:19.452Z,24.59
2022-07-27T23:38:47.684Z,24.58
2022-07-27T23:41:17.028Z,24.64
2022-07-27T23:43:45.074Z,24.58
2022-07-27T23:46:13.094Z,24.59
2022-07-27T23:48:41.121Z,24.59
2022-07-27T23:51:10.465Z,24.56
2022-07-27T23:53:38.369Z,24.46
2022-07-27T23:56:06.644Z,24.37
2022-07-27T23:58:34.524Z,24.30
